Knoxville, Georgia
Current Conditions -  °F | °C
As of 4:55 PM on Friday 28 Nov 2014 (Local Time) from KPXE Reporting Station
Clear Clear  
Wind Chill: 53°   Ceiling: Unl
Heat Index: 53°   Visibility: 10mi
Dew Point: 20°   Wind: 0mph
Humidity: 27%   Direction: NA
Pressure: 30.32"   Gusts: NA
Location:  32.72°N, 84°W
Report Text: KPXE 282155Z AUTO 00000KT 10SM CLR 12/M07 A3032 RMK AO2 T01181069
Loading
Personal Weather Stations






























Interactive Weather Map New forecast layout! Learn more

10-Day Weather Forecast

Advertisements
Track Severe Weather on mobile